Terminal Aerodrome Forecast
Issued by NWS

Home | Current Version | Previous Version | Text Only | Print | Product List | Glossary On
Versions: 1 2 3 4 5 6 7 8 9 10 11 12 13 14 15 16 17 18 19 20 21 22 23 24 25 26 27 28 29 30 31 32
000
FTUS41 KBOX 230235 AAA
TAFACK
TAF AMD
KACK 230235Z 2303/2324 32012G20KT P6SM SKC
     FM230600 32011KT P6SM SKC
     FM231400 35009KT P6SM SKC
     FM232000 25005KT P6SM FEW250
     FM232300 00000KT P6SM SKC=

USA.gov is the U.S. government's official web portal to all federal, state and local government web resources and services.